Time;durP1;ratioP1;P1;durP2;ratioP2;P2;SDS_P1;SDS_P2;PMS_P1;PMS_P2;Temp;Humidity;BMP_temperature;BMP_pressure;BME280_temperature;BME280_humidity;BME280_pressure;Samples;Min_cycle;Max_cycle;Signal;HPM_P1;HPM_P2
2024/01/27 00:01:24;;;;;;;61.13;29.98;;;;;;;-142.57;100.00;55745.47;5017117;28;20044;-87
2024/01/27 00:03:50;;;;;;;64.72;32.78;;;;;;;-142.57;100.00;55721.22;5015962;28;20447;-85
2024/01/27 00:06:16;;;;;;;62.65;31.02;;;;;;;-142.57;100.00;55757.59;5017497;28;20109;-86
2024/01/27 00:08:41;;;;;;;65.25;31.63;;;;;;;-142.57;100.00;55842.47;5017302;28;20022;-85
2024/01/27 00:11:07;;;;;;;67.47;32.10;;;;;;;-142.57;100.00;55737.41;5017094;28;20045;-85
2024/01/27 00:13:33;;;;;;;47.75;26.30;;;;;;;-142.57;100.00;55729.31;5017206;28;20037;-85
2024/01/27 00:15:58;;;;;;;32.33;20.30;;;;;;;-142.57;100.00;55688.91;5017147;28;20030;-85
2024/01/27 00:18:24;;;;;;;33.78;19.60;;;;;;;-142.57;100.00;55606.06;5017556;28;20091;-87
2024/01/27 00:20:49;;;;;;;34.50;21.23;;;;;;;-142.57;100.00;55547.47;5017614;28;20056;-85
2024/01/27 00:23:15;;;;;;;35.03;21.20;;;;;;;-142.57;100.00;55519.19;5016158;28;20025;-86
2024/01/27 00:25:41;;;;;;;35.72;21.48;;;;;;;-142.57;100.00;55527.28;5017555;28;20116;-84
2024/01/27 00:28:06;;;;;;;35.70;22.27;;;;;;;-142.57;100.00;55511.09;5018784;28;20038;-85
2024/01/27 00:30:32;;;;;;;37.50;21.17;;;;;;;-142.57;100.00;55567.69;5017115;28;20048;-88
2024/01/27 00:32:57;;;;;;;38.47;22.88;;;;;;;-142.57;100.00;55523.22;4999700;28;20026;-86
2024/01/27 00:35:23;;;;;;;36.20;22.00;;;;;;;-142.57;100.00;55551.50;5016752;28;20058;-87
2024/01/27 00:37:48;;;;;;;38.20;22.42;;;;;;;-142.57;100.00;55555.56;4999879;28;20041;-86
2024/01/27 00:40:14;;;;;;;97.05;24.85;;;;;;;-142.57;100.00;55511.09;5018091;28;20029;-86
2024/01/27 00:42:41;;;;;;;366.10;25.65;;;;;;;-142.57;100.00;55450.50;5001170;28;20050;-85
2024/01/27 00:45:07;;;;;;;138.57;25.33;;;;;;;-142.57;100.00;55422.22;5018319;28;20029;-86
2024/01/27 00:47:32;;;;;;;267.27;29.38;;;;;;;-142.57;100.00;55418.16;5000377;28;20030;-86
2024/01/27 00:49:58;;;;;;;218.98;28.63;;;;;;;-142.57;100.00;55381.81;5001173;28;20080;-82
2024/01/27 00:52:29;;;;;;;325.67;29.55;;;;;;;-142.57;100.00;55385.84;5018716;28;20030;-89
2024/01/27 00:54:57;;;;;;;331.30;33.20;;;;;;;-142.57;100.00;55373.72;5003036;28;20036;-89
2024/01/27 00:57:23;;;;;;;356.65;34.72;;;;;;;-142.57;100.00;55416.16;5017469;28;20030;-86
2024/01/27 00:59:49;;;;;;;292.13;36.78;;;;;;;-142.57;100.00;55393.91;4997310;28;20041;-88
2024/01/27 01:02:15;;;;;;;221.77;35.95;;;;;;;-142.57;100.00;55422.22;5027562;28;20365;-85
2024/01/27 01:04:45;;;;;;;233.45;33.97;;;;;;;-142.57;100.00;55446.44;5031074;28;20040;-85
2024/01/27 01:07:11;;;;;;;138.80;32.90;;;;;;;-142.57;100.00;55484.84;5003685;28;20509;-86
2024/01/27 01:09:36;;;;;;;152.77;33.97;;;;;;;-142.57;100.00;55454.53;5020442;28;20026;-86
2024/01/27 01:12:02;;;;;;;230.43;34.05;;;;;;;-142.57;100.00;55492.91;5017100;28;20707;-86
2024/01/27 01:14:28;;;;;;;88.88;33.03;;;;;;;-142.57;100.00;55507.06;5014236;28;20042;-86
2024/01/27 01:16:53;;;;;;;144.05;33.33;;;;;;;-142.57;100.00;55486.84;4997095;28;20088;-86
2024/01/27 01:19:19;;;;;;;99.13;31.30;;;;;;;-142.57;100.00;55474.72;4997872;28;20685;-87
2024/01/27 01:21:44;;;;;;;108.00;31.50;;;;;;;-142.57;100.00;55446.44;5015007;28;20377;-87
2024/01/27 01:24:10;;;;;;;71.80;29.05;;;;;;;-142.57;100.00;55462.63;4996574;28;20038;-87
2024/01/27 01:26:35;;;;;;;68.20;27.80;;;;;;;-142.57;100.00;55385.84;5012344;28;20034;-88
2024/01/27 01:29:01;;;;;;;59.42;27.90;;;;;;;-142.57;100.00;55420.19;5014565;28;20036;-87
2024/01/27 01:31:26;;;;;;;55.28;26.02;;;;;;;-142.57;100.00;55410.09;4998057;28;20038;-87
2024/01/27 01:33:52;;;;;;;51.47;26.05;;;;;;;-142.57;100.00;55406.03;5014180;28;20022;-87
2024/01/27 01:36:18;;;;;;;49.22;26.75;;;;;;;-142.57;100.00;55404.03;5014374;28;20083;-85
2024/01/27 01:38:43;;;;;;;49.85;27.55;;;;;;;-142.57;100.00;55434.31;4996679;28;20034;-88
2024/01/27 01:41:09;;;;;;;53.95;27.50;;;;;;;-142.57;100.00;55424.22;5012663;28;20125;-87
2024/01/27 01:43:35;;;;;;;49.88;26.25;;;;;;;-142.57;100.00;55430.28;5013567;28;20133;-86
2024/01/27 01:46:04;;;;;;;50.78;26.83;;;;;;;-142.57;100.00;55462.63;5014552;28;20055;-87
2024/01/27 01:48:30;;;;;;;45.80;26.73;;;;;;;-142.57;100.00;55472.72;5011925;28;20030;-88
2024/01/27 01:50:55;;;;;;;52.33;27.70;;;;;;;-142.57;100.00;55482.81;5013005;28;20057;-87
2024/01/27 01:53:22;;;;;;;53.15;27.73;;;;;;;-142.57;100.00;55494.94;5012830;28;20115;-89
2024/01/27 01:55:49;;;;;;;49.38;26.52;;;;;;;-142.57;100.00;55547.47;5012017;28;20037;-86
2024/01/27 01:58:16;;;;;;;56.42;27.58;;;;;;;-142.57;100.00;55535.34;5013909;28;20049;-87
2024/01/27 02:00:42;;;;;;;43.53;24.83;;;;;;;-142.57;100.00;55535.34;5012217;28;20029;-88
2024/01/27 02:03:14;;;;;;;47.42;24.52;;;;;;;-142.57;100.00;55571.72;5011534;28;20038;-88
2024/01/27 02:05:40;;;;;;;47.03;25.27;;;;;;;-142.57;100.00;55539.38;5013818;28;20472;-86
2024/01/27 02:08:06;;;;;;;44.35;24.60;;;;;;;-142.57;100.00;55547.47;5011587;28;20291;-86
2024/01/27 02:10:37;;;;;;;46.10;25.58;;;;;;;-142.57;100.00;55567.69;5012922;28;20033;-88
2024/01/27 02:13:05;;;;;;;47.28;25.25;;;;;;;-142.57;100.00;55559.59;5013630;28;20041;-87
2024/01/27 02:15:31;;;;;;;54.97;26.05;;;;;;;-142.57;100.00;55571.72;5013023;28;20021;-87
2024/01/27 02:17:56;;;;;;;47.45;26.33;;;;;;;-142.57;100.00;55587.88;5013411;28;20494;-86
2024/01/27 02:20:22;;;;;;;50.58;26.60;;;;;;;-142.57;100.00;55591.91;5012313;28;20026;-85
2024/01/27 02:22:47;;;;;;;49.22;26.00;;;;;;;-142.57;100.00;55547.47;5014041;28;20038;-87
2024/01/27 02:25:13;;;;;;;48.97;26.38;;;;;;;-142.57;100.00;55600.00;5012429;28;20042;-87
2024/01/27 02:27:40;;;;;;;48.22;26.65;;;;;;;-142.57;100.00;55618.19;5004131;28;20116;-85
2024/01/27 02:30:07;;;;;;;48.83;25.63;;;;;;;-142.57;100.00;55614.16;5002159;28;20098;-87
2024/01/27 02:32:32;;;;;;;51.42;27.15;;;;;;;-142.57;100.00;55569.69;5014186;28;20033;-87
2024/01/27 02:34:57;;;;;;;50.63;27.05;;;;;;;-142.57;100.00;55563.63;4995152;28;20045;-85
2024/01/27 02:37:23;;;;;;;54.03;27.33;;;;;;;-142.57;100.00;55579.81;5011391;28;20084;-85
2024/01/27 02:39:49;;;;;;;51.72;26.52;;;;;;;-142.57;100.00;55587.88;4996837;28;20102;-86
2024/01/27 02:42:14;;;;;;;50.55;25.27;;;;;;;-142.57;100.00;55612.13;5014685;28;20117;-86
2024/01/27 02:44:40;;;;;;;51.47;27.02;;;;;;;-142.57;100.00;55579.81;5017620;28;20117;-86
2024/01/27 02:47:05;;;;;;;54.55;26.50;;;;;;;-142.57;100.00;55632.34;5003748;28;20096;-87
2024/01/27 02:49:31;;;;;;;51.95;26.17;;;;;;;-142.57;100.00;55608.09;5022240;28;20022;-84
2024/01/27 02:51:56;;;;;;;52.60;27.33;;;;;;;-142.57;100.00;55567.69;5018613;28;20084;-84
2024/01/27 02:54:22;;;;;;;53.00;26.27;;;;;;;-142.57;100.00;55608.09;5019679;28;20038;-84
2024/01/27 02:56:47;;;;;;;49.03;26.02;;;;;;;-142.57;100.00;55608.09;5017210;28;20074;-85
2024/01/27 02:59:13;;;;;;;52.80;26.73;;;;;;;-142.57;100.00;55630.31;5017325;28;20483;-87
2024/01/27 03:01:38;;;;;;;52.30;26.90;;;;;;;-142.57;100.00;55626.28;5015090;28;20022;-88
2024/01/27 03:04:05;;;;;;;51.72;26.98;;;;;;;-142.57;100.00;55610.09;5016102;28;20073;-84
2024/01/27 03:06:30;;;;;;;53.03;27.38;;;;;;;-142.57;100.00;55612.13;5016174;28;20045;-85
2024/01/27 03:08:56;;;;;;;55.80;27.85;;;;;;;-142.57;100.00;55632.34;4996817;28;20026;-83
2024/01/27 03:11:21;;;;;;;58.20;26.92;;;;;;;-142.57;100.00;55638.41;5012812;28;20034;-89
2024/01/27 03:13:47;;;;;;;54.85;26.58;;;;;;;-142.57;100.00;55664.66;5013578;28;20033;-88
2024/01/27 03:16:13;;;;;;;58.00;26.70;;;;;;;-142.57;100.00;55618.19;4994770;28;20034;-85
2024/01/27 03:18:39;;;;;;;55.83;26.45;;;;;;;-142.57;100.00;55614.16;4996022;28;20049;-86
2024/01/27 03:21:06;;;;;;;52.15;25.40;;;;;;;-142.57;100.00;55656.56;4979965;28;20103;-84
2024/01/27 03:23:32;;;;;;;50.95;26.55;;;;;;;-142.57;100.00;55664.66;4995841;28;20064;-85
2024/01/27 03:25:57;;;;;;;52.28;25.85;;;;;;;-142.57;100.00;55668.69;4994968;28;20033;-85
2024/01/27 03:28:26;;;;;;;52.80;25.27;;;;;;;-142.57;100.00;55604.03;5013455;28;20095;-88
2024/01/27 03:30:51;;;;;;;52.22;26.63;;;;;;;-142.57;100.00;55670.72;5013395;28;20042;-87
2024/01/27 03:33:17;;;;;;;46.40;24.65;;;;;;;-142.57;100.00;55652.53;4996250;28;20049;-86
2024/01/27 03:35:42;;;;;;;48.95;26.23;;;;;;;-142.57;100.00;55672.75;5013132;28;20042;-84
2024/01/27 03:38:08;;;;;;;47.72;25.02;;;;;;;-142.57;100.00;55662.63;5015635;28;20037;-85
2024/01/27 03:40:34;;;;;;;46.60;24.20;;;;;;;-142.57;100.00;55692.94;4998200;28;20422;-85
2024/01/27 03:43:00;;;;;;;51.67;26.30;;;;;;;-142.57;100.00;55664.66;5008663;28;20558;-87
2024/01/27 03:45:25;;;;;;;53.42;25.63;;;;;;;-142.57;100.00;55666.69;5016816;28;20034;-87
2024/01/27 03:47:52;;;;;;;56.63;26.38;;;;;;;-142.57;100.00;55612.13;5015637;28;20454;-86
2024/01/27 03:50:17;;;;;;;62.17;28.55;;;;;;;-142.57;100.00;55612.13;5016391;28;20058;-86
2024/01/27 03:52:43;;;;;;;101.18;40.50;;;;;;;-142.57;100.00;55563.63;5016054;28;20061;-86
2024/01/27 03:55:08;;;;;;;219.95;44.90;;;;;;;-142.57;100.00;55488.88;5017241;28;20034;-88
2024/01/27 03:57:34;;;;;;;255.23;44.38;;;;;;;-142.57;100.00;55507.06;4998032;28;20116;-86
2024/01/27 03:59:59;;;;;;;184.00;41.80;;;;;;;-142.57;100.00;55505.03;5015945;28;20041;-84
2024/01/27 04:02:25;;;;;;;161.38;43.63;;;;;;;-142.57;100.00;55519.19;5015531;28;20479;-85
2024/01/27 04:04:50;;;;;;;94.40;43.35;;;;;;;-142.57;100.00;55484.84;5016978;28;20042;-84
2024/01/27 04:07:16;;;;;;;123.25;42.42;;;;;;;-142.57;100.00;55490.91;5016803;28;20029;-85
2024/01/27 04:09:42;;;;;;;99.47;44.38;;;;;;;-142.57;100.00;55470.69;4999559;28;20041;-83
2024/01/27 04:12:07;;;;;;;98.30;44.60;;;;;;;-142.57;100.00;55456.56;5025627;28;20045;-85
2024/01/27 04:14:33;;;;;;;129.80;43.35;;;;;;;-142.57;100.00;55470.69;5028332;28;20034;-86
2024/01/27 04:16:58;;;;;;;100.70;41.13;;;;;;;-142.57;100.00;55434.31;5035497;28;20048;-87
2024/01/27 04:19:24;;;;;;;91.85;40.55;;;;;;;-142.57;100.00;55474.72;5018270;28;20427;-85
2024/01/27 04:21:49;;;;;;;116.10;41.58;;;;;;;-142.57;100.00;55406.03;5015957;28;20026;-84
2024/01/27 04:24:15;;;;;;;73.13;40.90;;;;;;;-142.57;100.00;55414.13;5016525;28;20065;-87
2024/01/27 04:26:40;;;;;;;80.55;42.17;;;;;;;-142.57;100.00;55430.28;5015316;28;20040;-86
2024/01/27 04:29:06;;;;;;;99.65;42.20;;;;;;;-142.57;100.00;55393.91;5015605;28;20053;-85
2024/01/27 04:31:31;;;;;;;89.82;40.08;;;;;;;-142.57;100.00;55402.00;5000260;28;20053;-87
2024/01/27 04:33:58;;;;;;;69.80;39.38;;;;;;;-142.57;100.00;55408.06;4999945;28;20097;-84
2024/01/27 04:36:29;;;;;;;64.72;39.40;;;;;;;-142.57;100.00;55416.16;5016987;28;20045;-86
2024/01/27 04:38:56;;;;;;;43.95;27.10;;;;;;;-142.57;100.00;55369.69;5016851;28;20045;-87
2024/01/27 04:41:21;;;;;;;61.35;37.45;;;;;;;-142.57;100.00;55389.88;5025732;28;20052;-85
2024/01/27 04:43:47;;;;;;;60.42;36.45;;;;;;;-142.57;100.00;55406.03;5026562;28;20113;-84
2024/01/27 04:46:12;;;;;;;60.78;37.22;;;;;;;-142.57;100.00;55438.38;5020021;28;20042;-85
2024/01/27 04:48:38;;;;;;;56.70;33.88;;;;;;;-142.57;100.00;55391.91;5019205;28;20038;-85
2024/01/27 04:51:03;;;;;;;57.25;34.88;;;;;;;-142.57;100.00;55408.06;5015896;28;20034;-87
2024/01/27 04:53:29;;;;;;;58.70;34.72;;;;;;;-142.57;100.00;55410.09;5016624;28;20121;-86
2024/01/27 04:55:54;;;;;;;54.22;34.55;;;;;;;-142.57;100.00;55434.31;5017384;28;20041;-86
2024/01/27 04:58:20;;;;;;;53.80;34.17;;;;;;;-142.57;100.00;55402.00;4998221;28;20042;-85
2024/01/27 05:04:40;;;;;;;52.05;32.08;;;;;;;-142.57;100.00;55355.53;4957979;28;20160;-86
2024/01/27 05:07:11;;;;;;;50.47;30.48;;;;;;;-142.57;100.00;55412.09;4957527;28;20134;-84
2024/01/27 05:09:36;;;;;;;51.65;29.92;;;;;;;-142.57;100.00;55389.88;4957050;28;20047;-87
2024/01/27 05:12:07;;;;;;;53.97;32.83;;;;;;;-142.57;100.00;55373.72;4956252;28;20047;-87
2024/01/27 05:14:32;;;;;;;53.78;29.83;;;;;;;-142.57;100.00;55327.25;4956221;28;20236;-87
2024/01/27 05:16:58;;;;;;;49.40;29.42;;;;;;;-142.57;100.00;55389.88;4956954;28;20152;-88
2024/01/27 05:19:24;;;;;;;52.50;30.58;;;;;;;-142.57;100.00;55389.88;4926095;29;20062;-87
2024/01/27 05:21:50;;;;;;;50.53;31.50;;;;;;;-142.57;100.00;55399.97;4955979;28;20047;-88
2024/01/27 05:24:15;;;;;;;52.42;31.33;;;;;;;-142.57;100.00;55399.97;4957251;28;20074;-88
2024/01/27 05:26:41;;;;;;;57.60;34.45;;;;;;;-142.57;100.00;55422.22;4941044;29;20031;-87
2024/01/27 05:29:08;;;;;;;56.85;33.25;;;;;;;-142.57;100.00;55472.72;4941424;29;20126;-86
2024/01/27 05:31:34;;;;;;;60.30;34.72;;;;;;;-142.57;100.00;55436.34;4955854;28;20129;-84
2024/01/27 05:34:00;;;;;;;57.58;31.92;;;;;;;-142.57;100.00;55454.53;4954316;28;20050;-86
2024/01/27 05:36:26;;;;;;;50.17;30.25;;;;;;;-142.57;100.00;55446.44;4955299;28;20370;-87
2024/01/27 05:38:51;;;;;;;59.85;29.45;;;;;;;-142.57;100.00;55385.84;4954804;28;20047;-86
2024/01/27 05:41:17;;;;;;;50.83;29.20;;;;;;;-142.57;100.00;55426.25;4981719;28;20049;-89
2024/01/27 05:43:42;;;;;;;48.47;27.85;;;;;;;-142.57;100.00;55454.53;4999159;28;20048;-91
2024/01/27 05:46:11;;;;;;;52.78;29.35;;;;;;;-142.57;100.00;55393.91;4998997;28;20045;-87
2024/01/27 05:48:37;;;;;;;54.40;30.60;;;;;;;-142.57;100.00;55428.25;5016297;28;20030;-86
2024/01/27 05:51:02;;;;;;;55.05;31.25;;;;;;;-142.57;100.00;55373.72;5017042;28;20061;-86
2024/01/27 05:53:28;;;;;;;58.28;31.48;;;;;;;-142.57;100.00;55381.81;5013436;28;20383;-85
2024/01/27 05:55:59;;;;;;;51.97;32.35;;;;;;;-142.57;100.00;55404.03;4997215;28;20041;-86
2024/01/27 05:58:25;;;;;;;41.13;25.10;;;;;;;-142.57;100.00;55385.84;5014566;28;20044;-83
2024/01/27 06:00:50;;;;;;;55.20;32.90;;;;;;;-142.57;100.00;55345.44;5012462;28;20093;-87
2024/01/27 06:03:17;;;;;;;64.82;37.58;;;;;;;-142.57;100.00;55305.03;5014438;28;20486;-85
2024/01/27 06:05:42;;;;;;;61.70;36.85;;;;;;;-142.57;100.00;55300.97;5014358;28;20030;-89
2024/01/27 06:08:08;;;;;;;80.60;38.72;;;;;;;-142.57;100.00;55331.28;4973759;28;20076;-85
2024/01/27 06:10:36;;;;;;;110.93;40.15;;;;;;;-142.57;100.00;55379.78;4995557;28;20038;-84
2024/01/27 06:13:05;;;;;;;106.03;42.85;;;;;;;-142.57;100.00;55385.84;5013855;28;20022;-86
2024/01/27 06:15:30;;;;;;;110.78;44.90;;;;;;;-142.57;100.00;55385.84;5012304;28;20030;-82
2024/01/27 06:17:57;;;;;;;119.78;44.58;;;;;;;-142.57;100.00;55426.25;5016135;28;20369;-79
2024/01/27 06:20:23;;;;;;;115.63;46.08;;;;;;;-142.57;100.00;55365.63;5016582;28;20136;-79
2024/01/27 06:22:48;;;;;;;154.93;47.30;;;;;;;-142.57;100.00;55361.59;5012370;28;20152;-78
2024/01/27 06:25:14;;;;;;;169.70;48.30;;;;;;;-142.57;100.00;55383.81;5011957;28;20486;-78
2024/01/27 06:27:41;;;;;;;104.78;43.42;;;;;;;-142.57;100.00;55381.81;5012125;28;20030;-81
2024/01/27 06:30:08;;;;;;;103.18;47.47;;;;;;;-142.57;100.00;55373.72;5012131;28;20042;-79
2024/01/27 06:32:33;;;;;;;90.80;46.83;;;;;;;-142.57;100.00;55389.88;5011680;28;20038;-81
2024/01/27 06:34:59;;;;;;;103.35;42.95;;;;;;;-142.57;100.00;55397.97;5012365;28;20479;-78
2024/01/27 06:37:24;;;;;;;76.47;40.47;;;;;;;-142.57;100.00;55389.88;4993959;28;20030;-79
2024/01/27 06:39:50;;;;;;;76.68;39.38;;;;;;;-142.57;100.00;55385.84;5012227;28;20522;-83
2024/01/27 06:42:15;;;;;;;81.50;43.05;;;;;;;-142.57;100.00;55395.94;5011876;28;20030;-83
2024/01/27 06:44:41;;;;;;;82.28;39.83;;;;;;;-142.57;100.00;55377.75;5011729;28;20546;-84
2024/01/27 06:47:06;;;;;;;89.93;39.67;;;;;;;-142.57;100.00;55341.38;5012258;28;20030;-80
2024/01/27 06:49:33;;;;;;;102.38;38.67;;;;;;;-142.57;100.00;55292.91;5009551;28;20101;-77
2024/01/27 06:51:59;;;;;;;84.18;42.30;;;;;;;-142.57;100.00;55375.75;5010824;28;20034;-81
2024/01/27 06:54:27;;;;;;;84.13;41.28;;;;;;;-142.57;100.00;55406.03;5010715;28;20030;-83
2024/01/27 06:56:53;;;;;;;75.53;38.28;;;;;;;-142.57;100.00;55361.59;5009692;28;20038;-81
2024/01/27 06:59:18;;;;;;;69.72;38.03;;;;;;;-142.57;100.00;55341.38;5013184;28;20049;-84
2024/01/27 07:01:51;;;;;;;76.63;42.58;;;;;;;-142.57;100.00;55393.91;5014111;28;20815;-81
2024/01/27 07:04:17;;;;;;;61.80;37.03;;;;;;;-142.57;100.00;55375.75;5012583;28;20089;-80
2024/01/27 07:06:43;;;;;;;76.68;40.28;;;;;;;-142.57;100.00;55381.81;5012772;28;20038;-77
2024/01/27 07:09:09;;;;;;;86.03;41.03;;;;;;;-142.57;100.00;55410.09;5012570;28;20038;-77
2024/01/27 07:11:35;;;;;;;88.65;43.53;;;;;;;-142.57;100.00;55406.03;5012690;28;20359;-80
2024/01/27 07:14:02;;;;;;;92.95;40.00;;;;;;;-142.57;100.00;55385.84;5016590;28;20121;-82
2024/01/27 07:16:28;;;;;;;80.90;36.90;;;;;;;-142.57;100.00;55313.09;5020140;28;20034;-77
2024/01/27 07:18:53;;;;;;;95.10;34.40;;;;;;;-142.57;100.00;55296.94;5005755;28;20037;-84
2024/01/27 07:21:19;;;;;;;115.80;37.92;;;;;;;-142.57;100.00;55262.59;5036416;28;20025;-84
2024/01/27 07:23:45;;;;;;;82.97;39.53;;;;;;;-142.57;100.00;55286.84;5033114;28;20029;-86
2024/01/27 07:26:11;;;;;;;75.10;42.25;;;;;;;-142.57;100.00;55296.94;5033013;28;20042;-83
2024/01/27 07:28:38;;;;;;;165.45;44.85;;;;;;;-142.57;100.00;55309.06;5038565;28;20030;-82
2024/01/27 07:31:26;;;;;;;152.30;44.08;;;;;;;-142.57;100.00;55296.94;5039483;28;20088;-82
2024/01/27 07:33:52;;;;;;;136.27;48.40;;;;;;;-142.57;100.00;55365.63;5040871;28;20057;-83
2024/01/27 07:36:23;;;;;;;133.07;52.30;;;;;;;-142.57;100.00;55436.34;5036065;28;20034;-82
2024/01/27 07:38:49;;;;;;;190.13;54.40;;;;;;;-142.57;100.00;55333.31;5001068;28;20042;-85
2024/01/27 07:41:15;;;;;;;236.02;66.18;;;;;;;-142.57;100.00;55345.44;5000660;28;20107;-84
2024/01/27 07:43:41;;;;;;;150.02;66.63;;;;;;;-142.57;100.00;55410.09;5002786;28;20044;-84
2024/01/27 07:46:07;;;;;;;163.82;62.63;;;;;;;-142.57;100.00;55367.66;5002389;28;20037;-84
2024/01/27 07:48:32;;;;;;;161.00;63.85;;;;;;;-142.57;100.00;55511.09;5028713;28;20479;-82
2024/01/27 07:50:58;;;;;;;161.48;65.95;;;;;;;-142.57;100.00;55432.31;5014071;28;20233;-83
2024/01/27 07:53:24;;;;;;;160.65;67.40;;;;;;;-142.57;100.00;55523.22;5007475;28;20094;-85
2024/01/27 07:55:53;;;;;;;196.77;75.78;;;;;;;-142.57;100.00;55525.25;5001755;28;20069;-85
2024/01/27 07:58:19;;;;;;;218.43;75.47;;;;;;;-142.57;100.00;55490.91;5020328;28;20034;-87
2024/01/27 08:00:45;;;;;;;189.82;73.38;;;;;;;-142.57;100.00;55476.75;5019519;28;20498;-87
2024/01/27 08:03:10;;;;;;;156.65;67.00;;;;;;;-142.57;100.00;55482.81;5025144;28;20038;-85
2024/01/27 08:05:39;;;;;;;123.70;48.78;;;;;;;-142.57;100.00;55428.25;5004181;28;20065;-84
2024/01/27 08:08:05;;;;;;;105.45;51.67;;;;;;;-142.57;100.00;55418.16;5022901;28;20052;-92
2024/01/27 08:10:38;;;;;;;114.65;48.10;;;;;;;-142.57;100.00;55442.41;5025210;28;20062;-86
2024/01/27 08:13:04;;;;;;;111.38;48.17;;;;;;;-142.57;100.00;55416.16;5020787;28;20037;-84
2024/01/27 08:15:29;;;;;;;132.75;51.60;;;;;;;-142.57;100.00;55430.28;5018905;28;20479;-85
2024/01/27 08:17:56;;;;;;;111.68;51.85;;;;;;;-142.57;100.00;55466.66;5017845;28;20502;-87
2024/01/27 08:20:21;;;;;;;120.90;53.22;;;;;;;-142.57;100.00;55503.03;5017795;28;20651;-85
2024/01/27 08:22:50;;;;;;;157.63;58.00;;;;;;;-142.57;100.00;55436.34;4999968;28;20488;-87
2024/01/27 08:25:16;;;;;;;132.65;60.95;;;;;;;-142.57;100.00;55472.72;5014971;28;20109;-85
2024/01/27 08:27:41;;;;;;;133.30;63.70;;;;;;;-142.57;100.00;55535.34;5016618;28;20116;-86
2024/01/27 08:30:08;;;;;;;135.65;61.47;;;;;;;-142.57;100.00;55432.31;5016372;28;20065;-85
2024/01/27 08:32:34;;;;;;;161.93;63.35;;;;;;;-142.57;100.00;55466.66;4999091;28;20037;-85
2024/01/27 08:35:00;;;;;;;161.48;64.88;;;;;;;-142.57;100.00;55474.72;4998978;28;20030;-84
2024/01/27 08:37:26;;;;;;;215.30;66.88;;;;;;;-142.57;100.00;55426.25;5015681;28;20044;-86
2024/01/27 08:39:51;;;;;;;157.75;67.65;;;;;;;-142.57;100.00;55454.53;5016242;28;20074;-83
2024/01/27 08:42:17;;;;;;;160.45;66.57;;;;;;;-142.57;100.00;55490.91;5016091;28;20053;-83
2024/01/27 08:44:42;;;;;;;193.77;64.40;;;;;;;-142.57;100.00;55537.38;5016503;28;20127;-86
2024/01/27 08:47:08;;;;;;;154.60;64.20;;;;;;;-142.57;100.00;55529.28;5017975;28;20068;-83
2024/01/27 08:49:33;;;;;;;120.35;64.47;;;;;;;-142.57;100.00;55531.31;5016150;28;20525;-82
2024/01/27 08:51:59;;;;;;;177.57;65.28;;;;;;;-142.57;100.00;55454.53;5016060;28;20121;-83
2024/01/27 08:54:25;;;;;;;114.80;59.55;;;;;;;-142.57;100.00;55519.19;5016610;28;20113;-82
2024/01/27 08:56:50;;;;;;;113.03;61.75;;;;;;;-142.57;100.00;55480.78;5017629;28;20088;-84
2024/01/27 08:59:16;;;;;;;169.90;64.97;;;;;;;-142.57;100.00;55422.22;5019008;28;20156;-86
2024/01/27 09:01:45;;;;;;;132.32;64.40;;;;;;;-142.57;100.00;55494.94;5019411;28;20431;-86
2024/01/27 09:04:10;;;;;;;132.07;66.95;;;;;;;-142.57;100.00;55484.84;5019593;28;20060;-86
2024/01/27 09:06:36;;;;;;;155.18;66.25;;;;;;;-142.57;100.00;55513.13;5016042;28;20038;-85
2024/01/27 09:09:02;;;;;;;131.13;70.28;;;;;;;-142.57;100.00;55539.38;5014445;28;20431;-82
2024/01/27 09:11:30;;;;;;;120.78;63.53;;;;;;;-142.57;100.00;55531.31;5015441;28;20046;-84
2024/01/27 09:13:56;;;;;;;121.05;64.70;;;;;;;-142.57;100.00;55535.34;5015349;28;20041;-85
2024/01/27 09:16:21;;;;;;;102.13;57.58;;;;;;;-142.57;100.00;55539.38;5014954;28;20042;-85
2024/01/27 09:18:49;;;;;;;106.60;56.25;;;;;;;-142.57;100.00;55535.34;5016058;28;20034;-84
2024/01/27 09:21:20;;;;;;;124.63;59.28;;;;;;;-142.57;100.00;55549.50;5015701;28;20038;-84
2024/01/27 09:23:47;;;;;;;102.55;56.05;;;;;;;-142.57;100.00;55579.81;5015700;28;20510;-85
2024/01/27 09:26:13;;;;;;;107.20;56.55;;;;;;;-142.57;100.00;55551.50;5015834;28;20099;-87
2024/01/27 09:28:43;;;;;;;97.30;54.97;;;;;;;-142.57;100.00;55620.22;4998168;28;20049;-84
2024/01/27 09:31:10;;;;;;;99.40;55.67;;;;;;;-142.57;100.00;55620.22;5013773;28;20406;-85
2024/01/27 09:33:36;;;;;;;98.63;56.78;;;;;;;-142.57;100.00;55610.09;5015053;28;20069;-84
2024/01/27 09:36:05;;;;;;;98.25;55.88;;;;;;;-142.57;100.00;55638.41;5015046;28;20030;-86
2024/01/27 09:38:30;;;;;;;103.57;55.92;;;;;;;-142.57;100.00;55608.09;4997709;28;20447;-84
2024/01/27 09:40:56;;;;;;;114.72;60.30;;;;;;;-142.57;100.00;55591.91;5015332;28;20040;-84
2024/01/27 09:43:26;;;;;;;100.60;57.47;;;;;;;-142.57;100.00;55664.66;5014999;28;20041;-86
2024/01/27 09:45:52;;;;;;;97.78;55.58;;;;;;;-142.57;100.00;55644.47;5015633;28;20467;-82
2024/01/27 09:48:18;;;;;;;127.05;67.55;;;;;;;-142.57;100.00;55638.41;5016202;28;20041;-87
2024/01/27 09:50:45;;;;;;;96.68;55.25;;;;;;;-142.57;100.00;55628.28;5015501;28;20030;-86
2024/01/27 09:53:11;;;;;;;94.85;52.92;;;;;;;-142.57;100.00;55624.25;5015826;28;20089;-86
2024/01/27 09:55:37;;;;;;;108.28;53.85;;;;;;;-142.57;100.00;55640.41;5000366;28;20061;-81
2024/01/27 09:58:04;;;;;;;101.15;56.20;;;;;;;-142.57;100.00;55672.75;5015892;28;20467;-83
2024/01/27 10:00:30;;;;;;;101.40;52.97;;;;;;;-142.57;100.00;55705.06;5015384;28;20036;-80
2024/01/27 10:02:58;;;;;;;94.18;51.58;;;;;;;-142.57;100.00;55648.50;5014323;28;20125;-79
2024/01/27 10:05:24;;;;;;;89.60;50.83;;;;;;;-142.57;100.00;55674.75;5014546;28;20387;-83
2024/01/27 10:07:49;;;;;;;90.18;49.40;;;;;;;-142.57;100.00;55684.88;4998318;28;20042;-84
2024/01/27 10:10:15;;;;;;;110.32;51.78;;;;;;;-142.57;100.00;55632.34;5015570;28;20048;-81
2024/01/27 10:12:42;;;;;;;104.45;52.47;;;;;;;-142.57;100.00;55733.34;5020572;28;20030;-81
2024/01/27 10:15:21;;;;;;;89.10;50.03;;;;;;;-142.57;100.00;55741.44;5015261;28;20466;-86
2024/01/27 10:17:46;;;;;;;91.30;48.88;;;;;;;-142.57;100.00;55789.94;5013823;28;20068;-84
2024/01/27 10:20:18;;;;;;;84.13;47.22;;;;;;;-142.57;100.00;55745.47;4997000;28;20061;-84
2024/01/27 10:22:45;;;;;;;96.07;49.20;;;;;;;-142.57;100.00;55783.88;5014087;28;20054;-87
2024/01/27 10:25:11;;;;;;;94.32;50.00;;;;;;;-142.57;100.00;55781.84;5013751;28;20125;-85
2024/01/27 10:27:37;;;;;;;137.65;51.28;;;;;;;-142.57;100.00;55810.13;5013285;28;20030;-84
2024/01/27 10:30:03;;;;;;;141.02;49.28;;;;;;;-142.57;100.00;55789.94;5013313;28;20517;-84
2024/01/27 10:32:29;;;;;;;179.77;50.03;;;;;;;-142.57;100.00;55838.44;5012625;28;20034;-86
2024/01/27 10:35:05;;;;;;;77.45;43.88;;;;;;;-142.57;100.00;55791.94;5014390;28;20076;-84
2024/01/27 10:37:30;;;;;;;102.38;46.97;;;;;;;-142.57;100.00;55773.78;5015450;28;20132;-86
2024/01/27 10:40:00;;;;;;;118.90;49.38;;;;;;;-142.57;100.00;55818.22;5021804;28;20060;-85
2024/01/27 10:42:32;;;;;;;118.22;50.45;;;;;;;-142.57;100.00;55796.00;5034985;28;20021;-85
2024/01/27 10:45:02;;;;;;;81.20;46.63;;;;;;;-142.57;100.00;55747.50;4997911;28;20039;-85
2024/01/27 10:47:31;;;;;;;113.85;49.85;;;;;;;-142.57;100.00;55804.06;4993094;28;20050;-83
2024/01/27 10:49:58;;;;;;;217.88;56.65;;;;;;;-142.57;100.00;55838.44;4994470;28;20449;-86
2024/01/27 10:52:28;;;;;;;121.13;52.88;;;;;;;-142.57;100.00;55872.78;4994848;28;20039;-89